sensor_id;sensor_type;location;lat;lon;timestamp;temperature;humidity
59977;DHT22;45837;51.076;3.578;2023-05-16T00:00:03;20.40;59.30
59977;DHT22;45837;51.076;3.578;2023-05-16T00:02:31;20.30;59.00
59977;DHT22;45837;51.076;3.578;2023-05-16T00:04:57;20.40;59.00
59977;DHT22;45837;51.076;3.578;2023-05-16T00:07:23;20.30;58.90
59977;DHT22;45837;51.076;3.578;2023-05-16T00:09:48;20.30;59.10
59977;DHT22;45837;51.076;3.578;2023-05-16T00:12:14;20.30;58.80
59977;DHT22;45837;51.076;3.578;2023-05-16T00:14:42;20.30;58.90
59977;DHT22;45837;51.076;3.578;2023-05-16T00:17:07;20.30;59.00
59977;DHT22;45837;51.076;3.578;2023-05-16T00:19:36;20.30;58.30
59977;DHT22;45837;51.076;3.578;2023-05-16T00:22:04;20.30;58.50
59977;DHT22;45837;51.076;3.578;2023-05-16T00:24:29;20.30;58.30
59977;DHT22;45837;51.076;3.578;2023-05-16T00:26:55;20.30;59.00
59977;DHT22;45837;51.076;3.578;2023-05-16T00:29:21;20.30;59.60
59977;DHT22;45837;51.076;3.578;2023-05-16T00:31:49;20.30;58.60
59977;DHT22;45837;51.076;3.578;2023-05-16T00:34:16;20.30;58.70
59977;DHT22;45837;51.076;3.578;2023-05-16T00:36:42;20.30;59.00
59977;DHT22;45837;51.076;3.578;2023-05-16T00:39:08;20.30;59.40
59977;DHT22;45837;51.076;3.578;2023-05-16T00:41:35;20.30;59.00
59977;DHT22;45837;51.076;3.578;2023-05-16T00:44:02;20.20;58.50
59977;DHT22;45837;51.076;3.578;2023-05-16T00:46:28;20.20;58.60
59977;DHT22;45837;51.076;3.578;2023-05-16T00:48:53;20.20;59.00
59977;DHT22;45837;51.076;3.578;2023-05-16T00:51:19;20.20;59.00
59977;DHT22;45837;51.076;3.578;2023-05-16T00:53:45;20.30;59.10
59977;DHT22;45837;51.076;3.578;2023-05-16T00:56:11;20.20;59.10
59977;DHT22;45837;51.076;3.578;2023-05-16T00:58:36;20.20;58.80
59977;DHT22;45837;51.076;3.578;2023-05-16T01:01:02;20.20;59.10
59977;DHT22;45837;51.076;3.578;2023-05-16T01:03:29;20.20;58.50
59977;DHT22;45837;51.076;3.578;2023-05-16T01:05:56;20.20;58.30
59977;DHT22;45837;51.076;3.578;2023-05-16T01:08:21;20.20;58.40
59977;DHT22;45837;51.076;3.578;2023-05-16T01:15:55;20.20;58.20
59977;DHT22;45837;51.076;3.578;2023-05-16T01:18:27;20.20;58.60
59977;DHT22;45837;51.076;3.578;2023-05-16T01:20:58;20.30;58.60
59977;DHT22;45837;51.076;3.578;2023-05-16T01:28:43;20.30;58.20
59977;DHT22;45837;51.076;3.578;2023-05-16T01:31:10;20.20;58.30
59977;DHT22;45837;51.076;3.578;2023-05-16T01:33:36;20.20;59.30
59977;DHT22;45837;51.076;3.578;2023-05-16T01:41:23;20.20;58.30
59977;DHT22;45837;51.076;3.578;2023-05-16T01:43:55;20.20;58.60
59977;DHT22;45837;51.076;3.578;2023-05-16T01:46:24;20.10;58.20
59977;DHT22;45837;51.076;3.578;2023-05-16T01:49:04;20.10;58.30
59977;DHT22;45837;51.076;3.578;2023-05-16T01:51:32;20.10;58.20
59977;DHT22;45837;51.076;3.578;2023-05-16T01:54:02;20.20;58.30
59977;DHT22;45837;51.076;3.578;2023-05-16T01:56:29;20.10;58.30
59977;DHT22;45837;51.076;3.578;2023-05-16T01:58:56;20.20;58.40
59977;DHT22;45837;51.076;3.578;2023-05-16T02:01:22;20.10;58.70
59977;DHT22;45837;51.076;3.578;2023-05-16T02:03:48;20.10;58.60
59977;DHT22;45837;51.076;3.578;2023-05-16T02:06:14;20.10;59.20
59977;DHT22;45837;51.076;3.578;2023-05-16T02:08:40;20.10;58.80
59977;DHT22;45837;51.076;3.578;2023-05-16T02:11:05;20.10;59.70
59977;DHT22;45837;51.076;3.578;2023-05-16T02:13:31;20.10;59.70
59977;DHT22;45837;51.076;3.578;2023-05-16T02:16:01;20.10;59.10
59977;DHT22;45837;51.076;3.578;2023-05-16T02:18:27;20.10;58.90
59977;DHT22;45837;51.076;3.578;2023-05-16T02:20:53;20.10;59.80
59977;DHT22;45837;51.076;3.578;2023-05-16T02:23:18;20.10;58.90
59977;DHT22;45837;51.076;3.578;2023-05-16T02:25:44;20.10;59.50
59977;DHT22;45837;51.076;3.578;2023-05-16T02:28:10;20.00;58.80
59977;DHT22;45837;51.076;3.578;2023-05-16T02:30:36;20.10;58.90
59977;DHT22;45837;51.076;3.578;2023-05-16T02:33:02;20.00;58.70
59977;DHT22;45837;51.076;3.578;2023-05-16T02:35:29;20.10;58.90
59977;DHT22;45837;51.076;3.578;2023-05-16T02:37:55;20.10;60.00
59977;DHT22;45837;51.076;3.578;2023-05-16T02:40:23;20.00;58.30
59977;DHT22;45837;51.076;3.578;2023-05-16T02:42:49;20.10;59.00
59977;DHT22;45837;51.076;3.578;2023-05-16T02:45:14;20.10;59.10
59977;DHT22;45837;51.076;3.578;2023-05-16T02:47:40;20.10;58.70
59977;DHT22;45837;51.076;3.578;2023-05-16T02:50:06;20.00;58.90
59977;DHT22;45837;51.076;3.578;2023-05-16T02:52:33;20.10;58.80
59977;DHT22;45837;51.076;3.578;2023-05-16T02:54:59;20.00;59.30
59977;DHT22;45837;51.076;3.578;2023-05-16T02:57:25;20.10;59.10
59977;DHT22;45837;51.076;3.578;2023-05-16T02:59:50;20.00;59.10
59977;DHT22;45837;51.076;3.578;2023-05-16T03:02:16;20.00;59.60
59977;DHT22;45837;51.076;3.578;2023-05-16T03:04:42;20.00;58.70
59977;DHT22;45837;51.076;3.578;2023-05-16T03:07:07;20.00;59.80
59977;DHT22;45837;51.076;3.578;2023-05-16T03:09:33;20.00;59.40
59977;DHT22;45837;51.076;3.578;2023-05-16T03:11:59;20.00;59.40
59977;DHT22;45837;51.076;3.578;2023-05-16T03:14:25;20.00;58.50
59977;DHT22;45837;51.076;3.578;2023-05-16T03:16:50;20.00;59.70
59977;DHT22;45837;51.076;3.578;2023-05-16T03:19:17;19.90;59.40
59977;DHT22;45837;51.076;3.578;2023-05-16T03:21:43;20.00;59.10
59977;DHT22;45837;51.076;3.578;2023-05-16T03:24:09;19.90;59.50
59977;DHT22;45837;51.076;3.578;2023-05-16T03:26:35;20.00;58.50
59977;DHT22;45837;51.076;3.578;2023-05-16T03:29:01;19.90;59.10
59977;DHT22;45837;51.076;3.578;2023-05-16T03:31:27;19.90;59.30
59977;DHT22;45837;51.076;3.578;2023-05-16T03:33:52;19.90;59.00
59977;DHT22;45837;51.076;3.578;2023-05-16T03:36:20;19.90;59.00
59977;DHT22;45837;51.076;3.578;2023-05-16T03:38:46;17.80;57.20
59977;DHT22;45837;51.076;3.578;2023-05-16T03:41:12;19.90;59.00
59977;DHT22;45837;51.076;3.578;2023-05-16T03:43:37;19.90;58.80
59977;DHT22;45837;51.076;3.578;2023-05-16T03:46:03;19.90;59.20
59977;DHT22;45837;51.076;3.578;2023-05-16T03:48:29;19.90;59.20
59977;DHT22;45837;51.076;3.578;2023-05-16T03:50:55;19.90;59.00
59977;DHT22;45837;51.076;3.578;2023-05-16T03:53:20;19.90;59.30
59977;DHT22;45837;51.076;3.578;2023-05-16T03:55:46;19.90;58.90
59977;DHT22;45837;51.076;3.578;2023-05-16T03:58:11;19.90;59.60
59977;DHT22;45837;51.076;3.578;2023-05-16T04:00:37;19.90;59.40
59977;DHT22;45837;51.076;3.578;2023-05-16T04:03:03;19.90;59.40
59977;DHT22;45837;51.076;3.578;2023-05-16T04:05:29;19.90;58.60
59977;DHT22;45837;51.076;3.578;2023-05-16T04:07:54;19.90;58.80
59977;DHT22;45837;51.076;3.578;2023-05-16T04:10:20;19.90;59.10
59977;DHT22;45837;51.076;3.578;2023-05-16T04:12:46;19.90;59.20
59977;DHT22;45837;51.076;3.578;2023-05-16T04:15:12;19.90;59.10
59977;DHT22;45837;51.076;3.578;2023-05-16T04:17:37;19.90;59.20
59977;DHT22;45837;51.076;3.578;2023-05-16T04:20:05;19.90;58.70
59977;DHT22;45837;51.076;3.578;2023-05-16T04:22:31;19.90;57.80
59977;DHT22;45837;51.076;3.578;2023-05-16T04:24:57;19.90;58.40
59977;DHT22;45837;51.076;3.578;2023-05-16T04:27:22;19.90;58.60
59977;DHT22;45837;51.076;3.578;2023-05-16T04:29:48;19.90;58.70
59977;DHT22;45837;51.076;3.578;2023-05-16T04:32:14;20.00;58.70
59977;DHT22;45837;51.076;3.578;2023-05-16T04:34:41;20.00;59.20
59977;DHT22;45837;51.076;3.578;2023-05-16T04:37:08;20.00;59.60
59977;DHT22;45837;51.076;3.578;2023-05-16T04:39:34;20.00;59.90
59977;DHT22;45837;51.076;3.578;2023-05-16T04:42:00;20.00;58.40
59977;DHT22;45837;51.076;3.578;2023-05-16T04:44:26;20.10;58.90
59977;DHT22;45837;51.076;3.578;2023-05-16T04:46:52;20.10;59.10
59977;DHT22;45837;51.076;3.578;2023-05-16T04:49:18;20.10;59.00
59977;DHT22;45837;51.076;3.578;2023-05-16T04:51:45;20.20;58.40
59977;DHT22;45837;51.076;3.578;2023-05-16T04:54:11;20.30;58.30
59977;DHT22;45837;51.076;3.578;2023-05-16T04:56:37;20.30;58.90
59977;DHT22;45837;51.076;3.578;2023-05-16T04:59:02;20.30;59.00
59977;DHT22;45837;51.076;3.578;2023-05-16T05:01:28;20.40;58.80
59977;DHT22;45837;51.076;3.578;2023-05-16T05:03:54;20.40;58.50
59977;DHT22;45837;51.076;3.578;2023-05-16T05:06:20;20.40;59.90
59977;DHT22;45837;51.076;3.578;2023-05-16T05:08:46;20.40;58.80
59977;DHT22;45837;51.076;3.578;2023-05-16T05:11:11;20.40;59.10
59977;DHT22;45837;51.076;3.578;2023-05-16T05:13:37;20.50;59.50
59977;DHT22;45837;51.076;3.578;2023-05-16T05:16:03;20.50;59.90
59977;DHT22;45837;51.076;3.578;2023-05-16T05:18:29;20.50;58.80
59977;DHT22;45837;51.076;3.578;2023-05-16T05:20:55;20.50;58.70
59977;DHT22;45837;51.076;3.578;2023-05-16T05:23:21;20.50;58.50
59977;DHT22;45837;51.076;3.578;2023-05-16T05:25:46;20.50;59.10
59977;DHT22;45837;51.076;3.578;2023-05-16T05:28:12;20.50;59.10
59977;DHT22;45837;51.076;3.578;2023-05-16T05:30:38;20.60;59.20
59977;DHT22;45837;51.076;3.578;2023-05-16T05:33:03;20.60;59.30
59977;DHT22;45837;51.076;3.578;2023-05-16T05:35:29;20.60;59.50
59977;DHT22;45837;51.076;3.578;2023-05-16T05:37:55;20.60;59.40
59977;DHT22;45837;51.076;3.578;2023-05-16T05:40:20;20.60;59.10
59977;DHT22;45837;51.076;3.578;2023-05-16T05:42:46;20.60;59.00
59977;DHT22;45837;51.076;3.578;2023-05-16T05:45:12;20.60;59.50
59977;DHT22;45837;51.076;3.578;2023-05-16T05:47:37;19.50;58.10
59977;DHT22;45837;51.076;3.578;2023-05-16T05:50:03;20.60;59.90
59977;DHT22;45837;51.076;3.578;2023-05-16T05:52:30;20.60;58.20
59977;DHT22;45837;51.076;3.578;2023-05-16T05:54:55;20.70;58.60
59977;DHT22;45837;51.076;3.578;2023-05-16T05:57:23;20.70;59.00
59977;DHT22;45837;51.076;3.578;2023-05-16T05:59:49;20.70;59.40
59977;DHT22;45837;51.076;3.578;2023-05-16T06:02:15;20.70;59.00
59977;DHT22;45837;51.076;3.578;2023-05-16T06:04:41;20.70;59.90
59977;DHT22;45837;51.076;3.578;2023-05-16T06:07:07;20.80;58.70
59977;DHT22;45837;51.076;3.578;2023-05-16T06:09:33;20.70;59.70
59977;DHT22;45837;51.076;3.578;2023-05-16T06:11:59;20.80;59.30
59977;DHT22;45837;51.076;3.578;2023-05-16T06:14:24;20.70;58.80
59977;DHT22;45837;51.076;3.578;2023-05-16T06:16:50;20.70;59.20
59977;DHT22;45837;51.076;3.578;2023-05-16T06:19:16;20.70;58.50
59977;DHT22;45837;51.076;3.578;2023-05-16T06:21:42;20.70;57.40
59977;DHT22;45837;51.076;3.578;2023-05-16T06:24:08;20.60;57.10
59977;DHT22;45837;51.076;3.578;2023-05-16T06:26:34;20.70;57.10
59977;DHT22;45837;51.076;3.578;2023-05-16T06:29:00;20.80;57.10
59977;DHT22;45837;51.076;3.578;2023-05-16T06:31:26;20.70;57.90
59977;DHT22;45837;51.076;3.578;2023-05-16T06:33:52;20.70;57.40
59977;DHT22;45837;51.076;3.578;2023-05-16T06:36:17;20.70;57.10
59977;DHT22;45837;51.076;3.578;2023-05-16T06:38:43;20.80;57.40
59977;DHT22;45837;51.076;3.578;2023-05-16T06:41:09;20.70;57.20
59977;DHT22;45837;51.076;3.578;2023-05-16T06:43:35;20.80;57.10
59977;DHT22;45837;51.076;3.578;2023-05-16T06:46:01;20.80;57.20
59977;DHT22;45837;51.076;3.578;2023-05-16T06:48:28;20.80;57.10
59977;DHT22;45837;51.076;3.578;2023-05-16T06:50:54;20.80;56.70
59977;DHT22;45837;51.076;3.578;2023-05-16T06:53:22;20.80;56.60
59977;DHT22;45837;51.076;3.578;2023-05-16T06:56:11;20.80;56.20
59977;DHT22;45837;51.076;3.578;2023-05-16T06:58:37;20.80;56.10
59977;DHT22;45837;51.076;3.578;2023-05-16T07:01:02;20.80;57.00
59977;DHT22;45837;51.076;3.578;2023-05-16T07:03:28;20.90;56.50
59977;DHT22;45837;51.076;3.578;2023-05-16T07:05:54;20.90;56.50
59977;DHT22;45837;51.076;3.578;2023-05-16T07:08:20;20.90;56.40
59977;DHT22;45837;51.076;3.578;2023-05-16T07:10:45;20.90;56.70
59977;DHT22;45837;51.076;3.578;2023-05-16T07:13:11;21.00;57.20
59977;DHT22;45837;51.076;3.578;2023-05-16T07:15:37;21.00;56.90
59977;DHT22;45837;51.076;3.578;2023-05-16T07:18:02;21.00;56.50
59977;DHT22;45837;51.076;3.578;2023-05-16T07:20:28;21.00;56.30
59977;DHT22;45837;51.076;3.578;2023-05-16T07:22:54;21.00;55.20
59977;DHT22;45837;51.076;3.578;2023-05-16T07:25:22;21.00;55.70
59977;DHT22;45837;51.076;3.578;2023-05-16T07:27:48;21.00;55.10
59977;DHT22;45837;51.076;3.578;2023-05-16T07:30:13;21.00;55.30
59977;DHT22;45837;51.076;3.578;2023-05-16T07:32:39;21.00;55.70
59977;DHT22;45837;51.076;3.578;2023-05-16T07:35:05;21.10;55.00
59977;DHT22;45837;51.076;3.578;2023-05-16T07:37:31;21.10;54.90
59977;DHT22;45837;51.076;3.578;2023-05-16T07:39:57;21.10;55.60
59977;DHT22;45837;51.076;3.578;2023-05-16T07:42:23;21.00;55.40
59977;DHT22;45837;51.076;3.578;2023-05-16T07:44:49;21.10;54.90
59977;DHT22;45837;51.076;3.578;2023-05-16T07:47:14;21.10;55.40
59977;DHT22;45837;51.076;3.578;2023-05-16T07:49:40;21.10;54.90
59977;DHT22;45837;51.076;3.578;2023-05-16T07:52:06;21.10;55.50
59977;DHT22;45837;51.076;3.578;2023-05-16T07:54:33;21.10;54.70
59977;DHT22;45837;51.076;3.578;2023-05-16T07:56:59;21.10;54.40
59977;DHT22;45837;51.076;3.578;2023-05-16T07:59:24;21.00;54.20
59977;DHT22;45837;51.076;3.578;2023-05-16T08:01:50;21.00;54.40
59977;DHT22;45837;51.076;3.578;2023-05-16T08:04:16;21.00;55.10
59977;DHT22;45837;51.076;3.578;2023-05-16T08:06:41;21.00;54.90
59977;DHT22;45837;51.076;3.578;2023-05-16T08:09:07;21.10;54.70
59977;DHT22;45837;51.076;3.578;2023-05-16T08:11:33;21.10;54.30
59977;DHT22;45837;51.076;3.578;2023-05-16T08:13:59;21.10;53.90
59977;DHT22;45837;51.076;3.578;2023-05-16T08:16:25;21.10;55.00
59977;DHT22;45837;51.076;3.578;2023-05-16T08:18:51;21.10;54.20
59977;DHT22;45837;51.076;3.578;2023-05-16T08:21:16;21.20;55.10
59977;DHT22;45837;51.076;3.578;2023-05-16T08:23:42;21.20;53.60
59977;DHT22;45837;51.076;3.578;2023-05-16T08:26:08;21.20;54.10
59977;DHT22;45837;51.076;3.578;2023-05-16T08:28:34;21.20;54.00
59977;DHT22;45837;51.076;3.578;2023-05-16T08:31:00;21.20;55.10
59977;DHT22;45837;51.076;3.578;2023-05-16T08:33:25;21.30;54.20
59977;DHT22;45837;51.076;3.578;2023-05-16T08:35:51;21.30;54.60
59977;DHT22;45837;51.076;3.578;2023-05-16T08:38:17;21.30;54.90
59977;DHT22;45837;51.076;3.578;2023-05-16T08:40:43;21.30;54.50
59977;DHT22;45837;51.076;3.578;2023-05-16T08:43:09;21.30;54.20
59977;DHT22;45837;51.076;3.578;2023-05-16T08:45:35;21.30;54.00
59977;DHT22;45837;51.076;3.578;2023-05-16T08:48:01;21.40;53.00
59977;DHT22;45837;51.076;3.578;2023-05-16T08:50:31;21.30;53.00
59977;DHT22;45837;51.076;3.578;2023-05-16T08:52:57;21.30;52.10
59977;DHT22;45837;51.076;3.578;2023-05-16T08:55:23;21.40;52.40
59977;DHT22;45837;51.076;3.578;2023-05-16T08:57:51;21.30;52.60
59977;DHT22;45837;51.076;3.578;2023-05-16T09:00:20;21.40;52.70
59977;DHT22;45837;51.076;3.578;2023-05-16T09:02:46;21.30;52.30
59977;DHT22;45837;51.076;3.578;2023-05-16T09:05:13;21.30;52.60
59977;DHT22;45837;51.076;3.578;2023-05-16T09:07:39;21.40;52.50
59977;DHT22;45837;51.076;3.578;2023-05-16T09:10:06;21.40;52.70
59977;DHT22;45837;51.076;3.578;2023-05-16T09:12:32;21.40;52.80
59977;DHT22;45837;51.076;3.578;2023-05-16T09:14:59;21.40;52.80
59977;DHT22;45837;51.076;3.578;2023-05-16T09:17:24;21.40;52.30
59977;DHT22;45837;51.076;3.578;2023-05-16T09:19:50;21.50;52.80
59977;DHT22;45837;51.076;3.578;2023-05-16T09:22:21;21.50;52.90
59977;DHT22;45837;51.076;3.578;2023-05-16T09:24:48;21.50;52.40
59977;DHT22;45837;51.076;3.578;2023-05-16T09:27:14;21.50;52.90
59977;DHT22;45837;51.076;3.578;2023-05-16T09:29:40;21.50;52.20
59977;DHT22;45837;51.076;3.578;2023-05-16T09:34:45;21.50;52.20
59977;DHT22;45837;51.076;3.578;2023-05-16T09:37:19;21.60;51.70
59977;DHT22;45837;51.076;3.578;2023-05-16T09:39:45;21.50;52.10
59977;DHT22;45837;51.076;3.578;2023-05-16T09:42:14;21.50;52.60
59977;DHT22;45837;51.076;3.578;2023-05-16T09:44:40;21.50;53.10
59977;DHT22;45837;51.076;3.578;2023-05-16T09:47:06;21.50;52.50
59977;DHT22;45837;51.076;3.578;2023-05-16T09:49:32;21.50;53.10
59977;DHT22;45837;51.076;3.578;2023-05-16T09:52:01;21.50;53.30
59977;DHT22;45837;51.076;3.578;2023-05-16T09:54:28;20.10;51.20
59977;DHT22;45837;51.076;3.578;2023-05-16T09:56:54;21.60;53.40
59977;DHT22;45837;51.076;3.578;2023-05-16T09:59:20;21.60;53.90
59977;DHT22;45837;51.076;3.578;2023-05-16T10:01:46;21.60;52.50
59977;DHT22;45837;51.076;3.578;2023-05-16T10:04:13;21.60;52.90
59977;DHT22;45837;51.076;3.578;2023-05-16T10:06:40;21.60;52.70
59977;DHT22;45837;51.076;3.578;2023-05-16T10:09:10;21.60;52.80
59977;DHT22;45837;51.076;3.578;2023-05-16T10:11:36;21.60;52.20
59977;DHT22;45837;51.076;3.578;2023-05-16T10:14:02;21.60;52.30
59977;DHT22;45837;51.076;3.578;2023-05-16T10:16:29;21.60;52.00
59977;DHT22;45837;51.076;3.578;2023-05-16T10:19:10;21.60;52.60
59977;DHT22;45837;51.076;3.578;2023-05-16T10:21:36;21.70;52.70
59977;DHT22;45837;51.076;3.578;2023-05-16T10:24:03;21.70;52.50
59977;DHT22;45837;51.076;3.578;2023-05-16T10:26:31;21.80;52.30
59977;DHT22;45837;51.076;3.578;2023-05-16T10:28:57;21.60;51.50
59977;DHT22;45837;51.076;3.578;2023-05-16T10:31:23;21.60;51.20
59977;DHT22;45837;51.076;3.578;2023-05-16T10:33:49;21.60;52.00
59977;DHT22;45837;51.076;3.578;2023-05-16T10:36:15;21.60;52.50
59977;DHT22;45837;51.076;3.578;2023-05-16T10:38:41;21.60;51.50
59977;DHT22;45837;51.076;3.578;2023-05-16T10:41:07;21.60;52.90
59977;DHT22;45837;51.076;3.578;2023-05-16T10:43:33;21.60;52.90
59977;DHT22;45837;51.076;3.578;2023-05-16T10:46:03;21.60;54.20
59977;DHT22;45837;51.076;3.578;2023-05-16T10:48:33;21.60;53.60
59977;DHT22;45837;51.076;3.578;2023-05-16T10:50:59;21.60;53.60
59977;DHT22;45837;51.076;3.578;2023-05-16T10:53:36;21.60;54.40
59977;DHT22;45837;51.076;3.578;2023-05-16T11:11:42;21.70;54.70
59977;DHT22;45837;51.076;3.578;2023-05-16T11:14:08;21.70;53.70
59977;DHT22;45837;51.076;3.578;2023-05-16T11:16:34;21.70;53.70
59977;DHT22;45837;51.076;3.578;2023-05-16T11:19:06;21.70;54.30
59977;DHT22;45837;51.076;3.578;2023-05-16T11:24:27;21.70;53.70
59977;DHT22;45837;51.076;3.578;2023-05-16T11:26:53;21.70;53.40
59977;DHT22;45837;51.076;3.578;2023-05-16T11:29:19;21.70;54.50
59977;DHT22;45837;51.076;3.578;2023-05-16T11:31:45;21.70;54.60
59977;DHT22;45837;51.076;3.578;2023-05-16T11:34:12;21.70;53.50
59977;DHT22;45837;51.076;3.578;2023-05-16T11:36:37;21.70;54.60
59977;DHT22;45837;51.076;3.578;2023-05-16T11:39:05;21.70;54.50
59977;DHT22;45837;51.076;3.578;2023-05-16T11:41:31;21.70;53.10
59977;DHT22;45837;51.076;3.578;2023-05-16T11:43:57;21.70;53.40
59977;DHT22;45837;51.076;3.578;2023-05-16T11:46:22;21.70;53.80
59977;DHT22;45837;51.076;3.578;2023-05-16T11:48:48;21.70;54.10
59977;DHT22;45837;51.076;3.578;2023-05-16T11:51:16;21.70;53.90
59977;DHT22;45837;51.076;3.578;2023-05-16T11:53:43;21.70;53.40
59977;DHT22;45837;51.076;3.578;2023-05-16T11:56:09;21.70;52.90
59977;DHT22;45837;51.076;3.578;2023-05-16T11:58:35;21.70;53.60
59977;DHT22;45837;51.076;3.578;2023-05-16T12:01:02;21.60;54.00
59977;DHT22;45837;51.076;3.578;2023-05-16T12:03:29;21.70;53.40
59977;DHT22;45837;51.076;3.578;2023-05-16T12:05:57;21.70;53.70
59977;DHT22;45837;51.076;3.578;2023-05-16T12:08:23;21.70;56.70
59977;DHT22;45837;51.076;3.578;2023-05-16T12:10:50;21.60;56.60
59977;DHT22;45837;51.076;3.578;2023-05-16T12:13:16;21.60;56.50
59977;DHT22;45837;51.076;3.578;2023-05-16T12:15:42;21.70;57.00
59977;DHT22;45837;51.076;3.578;2023-05-16T12:18:08;21.70;58.10
59977;DHT22;45837;51.076;3.578;2023-05-16T12:20:34;21.60;57.90
59977;DHT22;45837;51.076;3.578;2023-05-16T12:23:00;21.60;59.00
59977;DHT22;45837;51.076;3.578;2023-05-16T12:25:26;21.60;58.00
59977;DHT22;45837;51.076;3.578;2023-05-16T12:27:53;21.60;57.20
59977;DHT22;45837;51.076;3.578;2023-05-16T12:30:23;21.60;57.30
59977;DHT22;45837;51.076;3.578;2023-05-16T12:33:06;21.60;56.60
59977;DHT22;45837;51.076;3.578;2023-05-16T12:35:33;21.60;56.20
59977;DHT22;45837;51.076;3.578;2023-05-16T12:37:59;21.60;56.10
59977;DHT22;45837;51.076;3.578;2023-05-16T12:40:28;21.60;55.70
59977;DHT22;45837;51.076;3.578;2023-05-16T12:42:54;21.60;55.30
59977;DHT22;45837;51.076;3.578;2023-05-16T12:45:23;21.60;56.30
59977;DHT22;45837;51.076;3.578;2023-05-16T12:47:51;20.20;54.70
59977;DHT22;45837;51.076;3.578;2023-05-16T12:50:17;21.60;54.80
59977;DHT22;45837;51.076;3.578;2023-05-16T12:52:46;21.50;54.60
59977;DHT22;45837;51.076;3.578;2023-05-16T12:55:14;21.60;53.50
59977;DHT22;45837;51.076;3.578;2023-05-16T12:57:43;21.60;54.00
59977;DHT22;45837;51.076;3.578;2023-05-16T13:00:12;21.50;54.10
59977;DHT22;45837;51.076;3.578;2023-05-16T13:02:39;21.50;55.00
59977;DHT22;45837;51.076;3.578;2023-05-16T13:05:05;21.50;56.00
59977;DHT22;45837;51.076;3.578;2023-05-16T13:07:32;21.50;54.80
59977;DHT22;45837;51.076;3.578;2023-05-16T13:09:58;21.50;52.80
59977;DHT22;45837;51.076;3.578;2023-05-16T13:12:23;21.50;52.40
59977;DHT22;45837;51.076;3.578;2023-05-16T13:14:51;21.50;49.70
59977;DHT22;45837;51.076;3.578;2023-05-16T13:17:17;21.40;47.70
59977;DHT22;45837;51.076;3.578;2023-05-16T13:19:43;21.40;47.00
59977;DHT22;45837;51.076;3.578;2023-05-16T13:22:09;21.30;48.30
59977;DHT22;45837;51.076;3.578;2023-05-16T13:24:35;21.30;48.30
59977;DHT22;45837;51.076;3.578;2023-05-16T13:27:00;21.30;48.50
59977;DHT22;45837;51.076;3.578;2023-05-16T13:29:26;21.30;47.40
59977;DHT22;45837;51.076;3.578;2023-05-16T13:31:52;21.30;46.50
59977;DHT22;45837;51.076;3.578;2023-05-16T13:34:17;21.20;46.00
59977;DHT22;45837;51.076;3.578;2023-05-16T13:36:43;21.20;46.70
59977;DHT22;45837;51.076;3.578;2023-05-16T13:39:11;21.20;44.30
59977;DHT22;45837;51.076;3.578;2023-05-16T13:41:37;21.20;44.40
59977;DHT22;45837;51.076;3.578;2023-05-16T13:44:04;21.20;45.10
59977;DHT22;45837;51.076;3.578;2023-05-16T13:46:30;21.10;43.90
59977;DHT22;45837;51.076;3.578;2023-05-16T13:48:56;21.10;43.90
59977;DHT22;45837;51.076;3.578;2023-05-16T13:51:22;21.10;44.10
59977;DHT22;45837;51.076;3.578;2023-05-16T13:53:47;20.90;44.50
59977;DHT22;45837;51.076;3.578;2023-05-16T13:56:13;21.10;44.90
59977;DHT22;45837;51.076;3.578;2023-05-16T13:58:39;21.00;43.70
59977;DHT22;45837;51.076;3.578;2023-05-16T14:01:05;21.00;44.30
59977;DHT22;45837;51.076;3.578;2023-05-16T14:03:30;21.00;44.30
59977;DHT22;45837;51.076;3.578;2023-05-16T14:05:56;21.00;44.90
59977;DHT22;45837;51.076;3.578;2023-05-16T14:08:22;21.00;44.70
59977;DHT22;45837;51.076;3.578;2023-05-16T14:10:48;21.10;42.50
59977;DHT22;45837;51.076;3.578;2023-05-16T14:13:13;21.00;42.20
59977;DHT22;45837;51.076;3.578;2023-05-16T14:15:39;21.00;41.60
59977;DHT22;45837;51.076;3.578;2023-05-16T14:18:05;21.00;41.00
59977;DHT22;45837;51.076;3.578;2023-05-16T14:20:31;21.00;40.80
59977;DHT22;45837;51.076;3.578;2023-05-16T14:22:57;21.00;42.00
59977;DHT22;45837;51.076;3.578;2023-05-16T14:25:23;20.90;42.90
59977;DHT22;45837;51.076;3.578;2023-05-16T14:27:48;20.90;43.00
59977;DHT22;45837;51.076;3.578;2023-05-16T14:30:15;20.90;42.30
59977;DHT22;45837;51.076;3.578;2023-05-16T14:32:41;20.90;43.00
59977;DHT22;45837;51.076;3.578;2023-05-16T14:35:07;20.90;42.80
59977;DHT22;45837;51.076;3.578;2023-05-16T14:37:34;20.90;43.10
59977;DHT22;45837;51.076;3.578;2023-05-16T14:39:59;20.90;43.80
59977;DHT22;45837;51.076;3.578;2023-05-16T14:42:25;20.90;44.40
59977;DHT22;45837;51.076;3.578;2023-05-16T14:44:51;21.00;43.40
59977;DHT22;45837;51.076;3.578;2023-05-16T14:47:17;21.00;45.30
59977;DHT22;45837;51.076;3.578;2023-05-16T14:49:43;21.00;45.50
59977;DHT22;45837;51.076;3.578;2023-05-16T14:52:08;21.00;45.00
59977;DHT22;45837;51.076;3.578;2023-05-16T14:54:34;21.00;46.00
59977;DHT22;45837;51.076;3.578;2023-05-16T14:57:01;21.00;45.50
59977;DHT22;45837;51.076;3.578;2023-05-16T14:59:28;21.00;45.80
59977;DHT22;45837;51.076;3.578;2023-05-16T15:01:54;21.00;46.40
59977;DHT22;45837;51.076;3.578;2023-05-16T15:04:19;21.00;45.40
59977;DHT22;45837;51.076;3.578;2023-05-16T15:06:45;21.00;46.90
59977;DHT22;45837;51.076;3.578;2023-05-16T15:09:11;21.00;47.00
59977;DHT22;45837;51.076;3.578;2023-05-16T15:11:37;21.00;47.40
59977;DHT22;45837;51.076;3.578;2023-05-16T15:14:02;21.00;47.50
59977;DHT22;45837;51.076;3.578;2023-05-16T15:16:28;21.00;47.50
59977;DHT22;45837;51.076;3.578;2023-05-16T15:18:54;21.00;48.00
59977;DHT22;45837;51.076;3.578;2023-05-16T15:21:20;21.00;48.20
59977;DHT22;45837;51.076;3.578;2023-05-16T15:23:46;21.00;47.10
59977;DHT22;45837;51.076;3.578;2023-05-16T15:26:12;21.00;49.20
59977;DHT22;45837;51.076;3.578;2023-05-16T15:28:37;21.00;48.70
59977;DHT22;45837;51.076;3.578;2023-05-16T15:31:03;21.10;49.60
59977;DHT22;45837;51.076;3.578;2023-05-16T15:33:29;21.10;48.50
59977;DHT22;45837;51.076;3.578;2023-05-16T15:35:55;21.10;48.80
59977;DHT22;45837;51.076;3.578;2023-05-16T15:38:21;21.10;48.70
59977;DHT22;45837;51.076;3.578;2023-05-16T15:40:47;19.80;49.40
59977;DHT22;45837;51.076;3.578;2023-05-16T15:43:13;21.10;49.80
59977;DHT22;45837;51.076;3.578;2023-05-16T15:45:38;21.10;48.80
59977;DHT22;45837;51.076;3.578;2023-05-16T15:48:04;21.10;49.00
59977;DHT22;45837;51.076;3.578;2023-05-16T15:50:30;21.10;49.80
59977;DHT22;45837;51.076;3.578;2023-05-16T15:52:56;21.20;50.00
59977;DHT22;45837;51.076;3.578;2023-05-16T15:55:22;21.20;49.40
59977;DHT22;45837;51.076;3.578;2023-05-16T15:57:48;21.20;48.90
59977;DHT22;45837;51.076;3.578;2023-05-16T16:00:14;21.20;50.30